This is the latest recevied weather packets stored in our database for station/object OM8AGG-10. If no packets are shown the sender has not sent any weather packets the latest 10 day(s).
| Time | Temp. | Humidity | Pressure | Rain* | Wind** | Luminosity | Snow |
|---|---|---|---|---|---|---|---|
| 1788620320 | 24.44° C | 54% | 1018.4 hPa | - | - | - | - |
| 1788618520 | 25° C | 55% | 1018.6 hPa | - | - | - | - |
| 1788617620 | 25° C | 55% | 1018.8 hPa | - | - | - | - |
| 1788616720 | 24.44° C | 56% | 1018.7 hPa | - | - | - | - |
| 1788615820 | 24.44° C | 58% | 1018.6 hPa | - | - | - | - |
| 1788614920 | 23.89° C | 60% | 1018.9 hPa | - | - | - | - |
| 1788614020 | 23.33° C | 58% | 1018.9 hPa | - | - | - | - |
| 1788613119 | 23.33° C | 60% | 1018.9 hPa | - | - | - | - |
| 1788612219 | 23.89° C | 57% | 1018.8 hPa | - | - | - | - |
| 1788611319 | 23.33° C | 59% | 1019.3 hPa | - | - | - | - |
| 1788610419 | 23.89° C | 56% | 1019 hPa | - | - | - | - |
| 1788609519 | 23.33° C | 56% | 1019 hPa | - | - | - | - |
| 1788608619 | 22.22° C | 60% | 1019.4 hPa | - | - | - | - |
| 1788607719 | 22.22° C | 64% | 1018.7 hPa | - | - | - | - |
| 1788606818 | 20.56° C | 70% | 1018.8 hPa | - | - | - | - |
| 1788605918 | 20° C | 77% | 1019.4 hPa | - | - | - | - |
| 1788605018 | 19.44° C | 80% | 1018.7 hPa | - | - | - | - |
| 1788604118 | 18.89° C | 91% | 1018.7 hPa | - | - | - | - |
| 1788603218 | 17.78° C | 93% | 1018.9 hPa | - | - | - | - |
| 1788602318 | 17.78° C | 94% | 1019.6 hPa | - | - | - | - |
| 1788601418 | 18.33° C | 89% | 1019.7 hPa | - | - | - | - |
| 1788600517 | 18.89° C | 85% | 1019.5 hPa | - | - | - | - |
| 1788599617 | 20° C | 74% | 1019.1 hPa | - | - | - | - |
| 1788598717 | 20° C | 70% | 1018.9 hPa | - | - | - | - |
| 1788597817 | 20° C | 73% | 1018.8 hPa | - | - | - | - |
* Rain since midnight (hover to see other rain measurements)
** Current wind speed in m/s (hover to see current wind gust speed)